Ana Sayfa
METAR-TAF:

METAR-TAF

Havaalanları :

Fort Smith, Arkansas, Amerika Birleşik Devletleri

Enlem: 35-20-01N, Boylam: 094-21-54W, yükseklik: 142 m

Güncel hava durumu gözlemi

Rapor saat 01:53 UTC de 51 dakika önce yapıldı.
Rüzgar güneydan 5 kt
Sıcaklık 33°C
Nem 56%
Basınç 1012 hPa
Görüş mesafesi: 16.1 km
Açık gökyüzü

METAR: KFSM 240153Z 18005KT 10SM CLR 33/23 A2987 RMK AO2 SLP106 T03280228

Saat: 21:44 (02:44 UTC)

Tahmin

Rapor saat 23:20 UTC de 3 saat ve 24 dakika önce yapıldı.
Ayın 24'si saat 00 UTC'den ayın 24'si saat 24 UTC'ye kadar geçerli Tahmin
Rüzgar güneybatıdan 9 kt
Görüş mesafesi: 10 km
25000 ft yükseklikte parçalı bulutlu
Ayın 24'si saat 0300 UTC'den
Rüzgar değişken yönden 3 kt
Görüş mesafesi: 10 km
25000 ft yükseklikte parçalı bulutlu
Ayın 24'si saat 1800 UTC'den
Rüzgar güneydan 6 kt
Görüş mesafesi: 10 km
25000 ft yükseklikte parçalı bulutlu

TAF: KFSM 232320Z 2400/2424 23009KT P6SM SCT250 FM240300 VRB03KT P6SM SCT250 FM241800 18006KT P6SM SCT250

4.000'den fazla havaalanı için hava durumu gözlemleri ve tahminleri (METAR ve TAF raporları).

Kullanılabilir istasyonlar harita üzerinde sarı ve kırmızı noktalarla gösterilir.

İstasyonun adını görmek için fareyi noktanın üzerinde gezdirin.

Sonrasında hava gözlem ve tahminlerini görmek için tıklayın.

Haritayı değiştirmek için: yaklaştırmak için siyah artı işaretli yeşil düğmeye ve uzaklaştırmak için de eksi işaretli düğmeye hızla tıklayın; bitişik haritalar için yeşil okları kullanın.


METAR-TAF: